This is the latest recevied weather packets stored in our database for station/object KC9DRE. If no packets are shown the sender has not sent any weather packets the latest 10 day(s).
| Time | Temp. | Humidity | Pressure | Rain* | Wind** | Luminosity | Snow |
|---|---|---|---|---|---|---|---|
| 1777651897 | 13.89° C | 55% | 1015.6 hPa | 0 mm | - | 909 W/m² | - |
| 1777651594 | 14.44° C | 53% | 1015.4 hPa | 0 mm | - | 171 W/m² | - |
| 1777651291 | 15° C | 50% | 1015.2 hPa | 0 mm | - | 159 W/m² | - |
| 1777650987 | 16.11° C | 49% | 1015.1 hPa | 0 mm | - | 358 W/m² | - |
| 1777650685 | 15.56° C | 51% | 1015.2 hPa | 0 mm | - | 879 W/m² | - |
| 1777650382 | 13.89° C | 57% | 1015.2 hPa | 0 mm | - | 790 W/m² | - |
| 1777650079 | 12.78° C | 62% | 1015.1 hPa | 0 mm | - | 780 W/m² | - |
| 1777649782 | 12.78° C | 59% | 1015.1 hPa | 0 mm | - | 190 W/m² | - |
| 1777649473 | 12.78° C | 57% | 1014.9 hPa | 0 mm | - | 156 W/m² | - |
| 1777649169 | 13.89° C | 54% | 1014.9 hPa | 0 mm | - | 119 W/m² | - |
| 1777648867 | 14.44° C | 58% | 1014.9 hPa | 0 mm | - | 316 W/m² | - |
| 1777648563 | 15° C | 57% | 1014.8 hPa | 0 mm | - | 484 W/m² | - |
| 1777648260 | 14.44° C | 56% | 1014.7 hPa | 0 mm | - | 401 W/m² | - |
| 1777647955 | 13.33° C | 62% | 1015.1 hPa | 0 mm | - | 769 W/m² | - |
| 1777647653 | 13.89° C | 58% | 1014.9 hPa | 0 mm | - | 199 W/m² | - |
| 1777647349 | 13.89° C | 59% | 1014.7 hPa | 0 mm | - | 230 W/m² | - |
| 1777647047 | 13.89° C | 61% | 1014.6 hPa | 0 mm | - | 807 W/m² | - |
| 1777646743 | 13.33° C | 63% | 1014.8 hPa | 0 mm | - | 699 W/m² | - |
| 1777646438 | 12.78° C | 67% | 1014.6 hPa | 0 mm | - | 749 W/m² | - |
| 1777646135 | 12.78° C | 67% | 1014.8 hPa | 0 mm | - | 240 W/m² | - |
| 1777645832 | 13.33° C | 65% | 1014.8 hPa | 0 mm | - | 237 W/m² | - |
| 1777645529 | 13.33° C | 65% | 1014.7 hPa | 0 mm | - | 235 W/m² | - |
| 1777645225 | 13.33° C | 63% | 1014.5 hPa | 0 mm | - | 270 W/m² | - |
| 1777644921 | 13.89° C | 65% | 1014.5 hPa | 0 mm | - | 188 W/m² | - |
| 1777644619 | 12.78° C | 66% | 1014.2 hPa | 0 mm | - | 457 W/m² | - |
* Rain latest hour (hover to see other rain measurements)
** Current wind speed in m/s (hover to see current wind gust speed)